SILO ALERT LOG


Silo ID Alert Type Alert Message Silo Type Points Depth (mm) Strength Temperature (°C) Humidity (%) Height (mm) Volume (㎥) Weight (t) Flag Time
DJHNR06 Humidity 습도센서 측정값이 80% 초과 408 2676 3153 5.2 80.8 5003 711.947 450.093 0 2024-01-03 18:39:33.000
DJSSD04 Temperature 온도센서 상태 이상 0 8200 0 -999 -999 -120 -16.702 0 31 2024-01-03 18:39:33.000
DJSAD07 Humidity 습도센서 측정값이 80% 초과 642 2545 2699 6 85.7 5034 716.328 452.862 0 2024-01-03 18:39:33.000
DJHNR01 Humidity 습도센서 측정값이 80% 초과 호퍼 471 4307 4935 6.6 99.9 11072 472.841 298.93 13 2024-01-03 18:39:33.000
DJSSD01 Humidity 습도센서 측정값이 80% 초과 801 2572 4744 7.2 81.5 5507 766.478 484.568 0 2024-01-03 18:39:33.000
DJSAD08 Humidity 습도센서 측정값이 80% 초과 596 2543 4974 8.7 83 5036 716.652 453.068 12 2024-01-03 18:39:33.000
DJSSD05 Temperature 온도센서 측정값이 0도 미만 836 2551 4908 -45.4 43.7 5528 769.523 486.492 0 2024-01-03 18:39:32.000
DJSSD11 Humidity 습도센서 측정값이 80% 초과 호퍼 444 7378 146 2.2 82 3851 29.143 15.883 0 2024-01-03 18:39:31.000
DJSSD09 Temperature 온도센서 측정값이 0도 미만 107 2980 2858 -45.4 0 4699 654.04 413.484 11 2024-01-03 18:39:31.000
DJHNR12 Humidity 습도센서 측정값이 80% 초과 호퍼 152 10112 59 3.1 82.5 267 0 0 11 2024-01-03 18:39:30.000
DJSAD18 Humidity 습도센서 측정값이 80% 초과 118 1395 5737 6.6 80.8 6184 615.807 389.313 11 2024-01-03 18:39:30.000
DJHNR14 Humidity 습도센서 측정값이 80% 초과 호퍼 1 10500 227 2.5 99.9 -120 0 0 0 2024-01-03 18:39:28.000
DJSSD12 Temperature 온도센서 상태 이상 호퍼 0 11350 0 -999 -999 -120 0 0 31 2024-01-03 18:39:24.000
DJHNR03 Temperature 온도센서 상태 이상 호퍼 0 15500 0 -999 -999 -119 0 0 31 2024-01-03 18:39:24.000
DJSAD01 Humidity 습도센서 측정값이 80% 초과 452 1460 7384 3.4 88.8 7319 303.006 191.56 0 2024-01-03 17:39:40.000
DJSAD02 Humidity 습도센서 측정값이 80% 초과 386 1133 4376 4.1 87.7 7646 316.553 200.125 11 2024-01-03 17:39:39.000
DJSAD05 Humidity 습도센서 측정값이 80% 초과 473 1586 8901 4 81.7 7193 297.782 188.258 0 2024-01-03 17:39:39.000
DJSAD03 Humidity 습도센서 측정값이 80% 초과 444 1822 6191 5.3 84.5 6957 288.02 182.086 0 2024-01-03 17:39:39.000
DJSAD08 Humidity 습도센서 측정값이 80% 초과 588 2593 4934 8.9 82.9 4986 709.501 448.547 12 2024-01-03 17:39:33.000
DJSAD07 Humidity 습도센서 측정값이 80% 초과 654 2531 2694 6.1 85.5 5048 718.426 454.189 0 2024-01-03 17:39:33.000

[첫 페이지] [10198] [10199] [10200] [10201] 10202 [10203] [10204] [10205] [10206] [마지막 페이지]